sensor_id;sensor_type;location;lat;lon;timestamp;temperature;humidity
17495;DHT22;8864;51.970;4.614;2023-02-28T00:00:29;15.00;68.70
17495;DHT22;8864;51.970;4.614;2023-02-28T00:03:00;15.00;68.70
17495;DHT22;8864;51.970;4.614;2023-02-28T00:05:30;15.00;68.70
17495;DHT22;8864;51.970;4.614;2023-02-28T00:08:04;15.00;68.70
17495;DHT22;8864;51.970;4.614;2023-02-28T00:10:38;15.00;68.70
17495;DHT22;8864;51.970;4.614;2023-02-28T00:13:07;15.00;68.70
17495;DHT22;8864;51.970;4.614;2023-02-28T00:15:39;15.00;68.60
17495;DHT22;8864;51.970;4.614;2023-02-28T00:18:08;15.00;68.70
17495;DHT22;8864;51.970;4.614;2023-02-28T00:20:45;15.00;68.60
17495;DHT22;8864;51.970;4.614;2023-02-28T00:23:13;15.00;68.70
17495;DHT22;8864;51.970;4.614;2023-02-28T00:25:40;15.00;68.60
17495;DHT22;8864;51.970;4.614;2023-02-28T00:28:07;15.00;68.70
17495;DHT22;8864;51.970;4.614;2023-02-28T00:30:35;15.00;68.70
17495;DHT22;8864;51.970;4.614;2023-02-28T00:33:07;15.00;68.70
17495;DHT22;8864;51.970;4.614;2023-02-28T00:35:34;15.00;68.70
17495;DHT22;8864;51.970;4.614;2023-02-28T00:38:03;15.00;68.70
17495;DHT22;8864;51.970;4.614;2023-02-28T00:40:31;15.00;68.70
17495;DHT22;8864;51.970;4.614;2023-02-28T00:43:04;15.00;68.70
17495;DHT22;8864;51.970;4.614;2023-02-28T00:45:31;15.00;68.70
17495;DHT22;8864;51.970;4.614;2023-02-28T00:48:00;15.00;68.70
17495;DHT22;8864;51.970;4.614;2023-02-28T00:50:27;15.00;68.70
17495;DHT22;8864;51.970;4.614;2023-02-28T00:52:55;15.00;68.60
17495;DHT22;8864;51.970;4.614;2023-02-28T00:55:32;15.00;68.70
17495;DHT22;8864;51.970;4.614;2023-02-28T00:58:01;15.00;68.70
17495;DHT22;8864;51.970;4.614;2023-02-28T01:00:32;15.00;68.70
17495;DHT22;8864;51.970;4.614;2023-02-28T01:03:01;15.00;68.70
17495;DHT22;8864;51.970;4.614;2023-02-28T01:05:28;15.00;68.70
17495;DHT22;8864;51.970;4.614;2023-02-28T01:08:01;15.00;68.70
17495;DHT22;8864;51.970;4.614;2023-02-28T01:10:29;15.00;68.70
17495;DHT22;8864;51.970;4.614;2023-02-28T01:12:57;15.00;68.70
17495;DHT22;8864;51.970;4.614;2023-02-28T01:15:29;15.00;68.70
17495;DHT22;8864;51.970;4.614;2023-02-28T01:17:57;15.00;68.70
17495;DHT22;8864;51.970;4.614;2023-02-28T01:20:28;15.00;68.70
17495;DHT22;8864;51.970;4.614;2023-02-28T01:22:55;15.00;68.70
17495;DHT22;8864;51.970;4.614;2023-02-28T01:25:24;15.00;68.70
17495;DHT22;8864;51.970;4.614;2023-02-28T01:28:00;15.00;68.70
17495;DHT22;8864;51.970;4.614;2023-02-28T01:30:28;15.00;68.70
17495;DHT22;8864;51.970;4.614;2023-02-28T01:32:57;15.00;68.70
17495;DHT22;8864;51.970;4.614;2023-02-28T01:35:25;14.90;68.70
17495;DHT22;8864;51.970;4.614;2023-02-28T01:37:57;15.00;68.70
17495;DHT22;8864;51.970;4.614;2023-02-28T01:40:24;15.00;68.70
17495;DHT22;8864;51.970;4.614;2023-02-28T01:42:51;15.00;68.80
17495;DHT22;8864;51.970;4.614;2023-02-28T01:45:23;15.00;68.80
17495;DHT22;8864;51.970;4.614;2023-02-28T01:47:58;14.90;68.70
17495;DHT22;8864;51.970;4.614;2023-02-28T01:50:29;15.00;68.70
17495;DHT22;8864;51.970;4.614;2023-02-28T01:53:04;15.00;68.90
17495;DHT22;8864;51.970;4.614;2023-02-28T01:55:33;15.00;68.80
17495;DHT22;8864;51.970;4.614;2023-02-28T01:58:06;15.00;68.80
17495;DHT22;8864;51.970;4.614;2023-02-28T02:00:42;15.00;68.90
17495;DHT22;8864;51.970;4.614;2023-02-28T02:03:18;15.00;69.00
17495;DHT22;8864;51.970;4.614;2023-02-28T02:06:07;15.00;69.00
17495;DHT22;8864;51.970;4.614;2023-02-28T02:08:37;15.00;69.00
17495;DHT22;8864;51.970;4.614;2023-02-28T02:11:27;15.00;69.00
17495;DHT22;8864;51.970;4.614;2023-02-28T02:17:05;15.00;69.00
17495;DHT22;8864;51.970;4.614;2023-02-28T02:26:40;15.00;69.00
17495;DHT22;8864;51.970;4.614;2023-02-28T02:29:31;15.00;69.10
17495;DHT22;8864;51.970;4.614;2023-02-28T02:32:18;14.90;69.00
17495;DHT22;8864;51.970;4.614;2023-02-28T02:34:56;15.00;69.20
17495;DHT22;8864;51.970;4.614;2023-02-28T02:37:29;15.00;69.10
17495;DHT22;8864;51.970;4.614;2023-02-28T02:40:07;15.00;69.00
17495;DHT22;8864;51.970;4.614;2023-02-28T02:42:44;14.90;69.00
17495;DHT22;8864;51.970;4.614;2023-02-28T02:45:16;15.00;69.10
17495;DHT22;8864;51.970;4.614;2023-02-28T02:47:59;15.00;69.00
17495;DHT22;8864;51.970;4.614;2023-02-28T02:50:32;15.00;69.10
17495;DHT22;8864;51.970;4.614;2023-02-28T02:53:03;15.00;69.10
17495;DHT22;8864;51.970;4.614;2023-02-28T02:55:41;15.00;69.10
17495;DHT22;8864;51.970;4.614;2023-02-28T02:58:15;15.00;69.10
17495;DHT22;8864;51.970;4.614;2023-02-28T03:00:52;15.00;69.20
17495;DHT22;8864;51.970;4.614;2023-02-28T03:03:21;15.00;69.10
17495;DHT22;8864;51.970;4.614;2023-02-28T03:05:57;15.00;69.10
17495;DHT22;8864;51.970;4.614;2023-02-28T03:08:29;15.00;69.10
17495;DHT22;8864;51.970;4.614;2023-02-28T03:11:05;15.00;69.10
17495;DHT22;8864;51.970;4.614;2023-02-28T03:13:46;15.00;69.00
17495;DHT22;8864;51.970;4.614;2023-02-28T03:16:33;15.00;69.10
17495;DHT22;8864;51.970;4.614;2023-02-28T03:19:37;15.00;69.10
17495;DHT22;8864;51.970;4.614;2023-02-28T03:22:22;15.00;69.10
17495;DHT22;8864;51.970;4.614;2023-02-28T03:25:06;15.00;69.00
17495;DHT22;8864;51.970;4.614;2023-02-28T03:27:39;15.00;69.10
17495;DHT22;8864;51.970;4.614;2023-02-28T03:30:22;15.00;69.10
17495;DHT22;8864;51.970;4.614;2023-02-28T03:33:00;15.00;68.90
17495;DHT22;8864;51.970;4.614;2023-02-28T03:36:02;15.00;68.80
17495;DHT22;8864;51.970;4.614;2023-02-28T03:38:40;15.00;68.70
17495;DHT22;8864;51.970;4.614;2023-02-28T03:41:14;15.00;68.70
17495;DHT22;8864;51.970;4.614;2023-02-28T03:43:49;15.00;68.70
17495;DHT22;8864;51.970;4.614;2023-02-28T03:46:22;15.00;68.70
17495;DHT22;8864;51.970;4.614;2023-02-28T03:48:55;15.00;68.70
17495;DHT22;8864;51.970;4.614;2023-02-28T03:51:24;15.00;68.70
17495;DHT22;8864;51.970;4.614;2023-02-28T03:53:59;15.00;69.40
17495;DHT22;8864;51.970;4.614;2023-02-28T03:56:34;15.00;68.60
17495;DHT22;8864;51.970;4.614;2023-02-28T03:59:09;15.00;68.60
17495;DHT22;8864;51.970;4.614;2023-02-28T04:01:45;15.00;68.60
17495;DHT22;8864;51.970;4.614;2023-02-28T04:04:19;15.00;68.60
17495;DHT22;8864;51.970;4.614;2023-02-28T04:06:50;15.00;68.60
17495;DHT22;8864;51.970;4.614;2023-02-28T04:09:20;15.00;68.50
17495;DHT22;8864;51.970;4.614;2023-02-28T04:11:50;15.00;68.60
17495;DHT22;8864;51.970;4.614;2023-02-28T04:14:20;15.00;68.60
17495;DHT22;8864;51.970;4.614;2023-02-28T04:16:50;15.00;68.60
17495;DHT22;8864;51.970;4.614;2023-02-28T04:19:18;15.00;68.60
17495;DHT22;8864;51.970;4.614;2023-02-28T04:21:55;15.00;68.60
17495;DHT22;8864;51.970;4.614;2023-02-28T04:24:32;15.00;68.60
17495;DHT22;8864;51.970;4.614;2023-02-28T04:27:00;15.00;68.70
17495;DHT22;8864;51.970;4.614;2023-02-28T04:29:40;15.00;68.70
17495;DHT22;8864;51.970;4.614;2023-02-28T04:32:10;15.00;68.60
17495;DHT22;8864;51.970;4.614;2023-02-28T04:34:40;15.00;68.50
17495;DHT22;8864;51.970;4.614;2023-02-28T04:37:14;15.00;68.50
17495;DHT22;8864;51.970;4.614;2023-02-28T04:39:52;15.00;68.40
17495;DHT22;8864;51.970;4.614;2023-02-28T04:42:24;15.00;68.40
17495;DHT22;8864;51.970;4.614;2023-02-28T04:44:51;15.00;68.40
17495;DHT22;8864;51.970;4.614;2023-02-28T04:47:20;15.00;68.40
17495;DHT22;8864;51.970;4.614;2023-02-28T04:49:50;15.00;68.40
17495;DHT22;8864;51.970;4.614;2023-02-28T04:52:18;15.00;68.30
17495;DHT22;8864;51.970;4.614;2023-02-28T04:54:49;15.00;68.30
17495;DHT22;8864;51.970;4.614;2023-02-28T04:57:16;15.00;68.40
17495;DHT22;8864;51.970;4.614;2023-02-28T04:59:43;15.00;68.30
17495;DHT22;8864;51.970;4.614;2023-02-28T05:02:10;15.00;68.30
17495;DHT22;8864;51.970;4.614;2023-02-28T05:04:39;15.00;68.40
17495;DHT22;8864;51.970;4.614;2023-02-28T05:07:10;14.90;68.30
17495;DHT22;8864;51.970;4.614;2023-02-28T05:09:37;15.00;68.40
17495;DHT22;8864;51.970;4.614;2023-02-28T05:12:07;14.90;68.40
17495;DHT22;8864;51.970;4.614;2023-02-28T05:14:35;15.00;68.60
17495;DHT22;8864;51.970;4.614;2023-02-28T05:17:03;14.90;68.50
17495;DHT22;8864;51.970;4.614;2023-02-28T05:19:31;14.90;68.60
17495;DHT22;8864;51.970;4.614;2023-02-28T05:21:58;14.90;68.60
17495;DHT22;8864;51.970;4.614;2023-02-28T05:24:25;14.90;68.60
17495;DHT22;8864;51.970;4.614;2023-02-28T05:26:53;14.90;68.60
17495;DHT22;8864;51.970;4.614;2023-02-28T05:29:23;15.00;68.70
17495;DHT22;8864;51.970;4.614;2023-02-28T05:31:51;14.90;68.70
17495;DHT22;8864;51.970;4.614;2023-02-28T05:34:18;14.90;68.70
17495;DHT22;8864;51.970;4.614;2023-02-28T05:36:48;14.90;68.70
17495;DHT22;8864;51.970;4.614;2023-02-28T05:39:17;14.90;68.70
17495;DHT22;8864;51.970;4.614;2023-02-28T05:41:54;14.90;68.70
17495;DHT22;8864;51.970;4.614;2023-02-28T05:44:25;14.90;68.70
17495;DHT22;8864;51.970;4.614;2023-02-28T05:46:52;14.90;68.70
17495;DHT22;8864;51.970;4.614;2023-02-28T05:49:24;14.90;68.80
17495;DHT22;8864;51.970;4.614;2023-02-28T05:52:04;14.90;68.90
17495;DHT22;8864;51.970;4.614;2023-02-28T05:54:43;14.90;68.90
17495;DHT22;8864;51.970;4.614;2023-02-28T05:57:15;14.90;68.80
17495;DHT22;8864;51.970;4.614;2023-02-28T05:59:44;14.90;68.90
17495;DHT22;8864;51.970;4.614;2023-02-28T06:02:16;14.90;69.00
17495;DHT22;8864;51.970;4.614;2023-02-28T06:04:47;14.90;68.90
17495;DHT22;8864;51.970;4.614;2023-02-28T06:07:17;14.90;68.90
17495;DHT22;8864;51.970;4.614;2023-02-28T06:09:53;14.90;69.00
17495;DHT22;8864;51.970;4.614;2023-02-28T06:12:23;14.90;69.00
17495;DHT22;8864;51.970;4.614;2023-02-28T06:14:55;14.90;69.80
17495;DHT22;8864;51.970;4.614;2023-02-28T06:17:26;14.90;70.60
17495;DHT22;8864;51.970;4.614;2023-02-28T06:19:59;15.00;70.40
17495;DHT22;8864;51.970;4.614;2023-02-28T06:22:29;15.00;70.00
17495;DHT22;8864;51.970;4.614;2023-02-28T06:25:02;15.00;69.80
17495;DHT22;8864;51.970;4.614;2023-02-28T06:27:36;15.00;69.70
17495;DHT22;8864;51.970;4.614;2023-02-28T06:30:11;15.00;69.50
17495;DHT22;8864;51.970;4.614;2023-02-28T06:32:40;15.00;69.30
17495;DHT22;8864;51.970;4.614;2023-02-28T06:35:08;15.00;69.30
17495;DHT22;8864;51.970;4.614;2023-02-28T06:37:42;15.00;69.20
17495;DHT22;8864;51.970;4.614;2023-02-28T06:40:17;15.00;69.00
17495;DHT22;8864;51.970;4.614;2023-02-28T06:42:47;15.00;68.90
17495;DHT22;8864;51.970;4.614;2023-02-28T06:45:23;15.00;68.70
17495;DHT22;8864;51.970;4.614;2023-02-28T06:47:56;15.00;68.70
17495;DHT22;8864;51.970;4.614;2023-02-28T06:50:25;15.00;68.60
17495;DHT22;8864;51.970;4.614;2023-02-28T06:52:55;15.00;68.50
17495;DHT22;8864;51.970;4.614;2023-02-28T06:55:24;15.00;68.50
17495;DHT22;8864;51.970;4.614;2023-02-28T06:57:51;15.00;68.50
17495;DHT22;8864;51.970;4.614;2023-02-28T07:00:22;15.00;68.40
17495;DHT22;8864;51.970;4.614;2023-02-28T07:02:49;15.00;68.40
17495;DHT22;8864;51.970;4.614;2023-02-28T07:05:20;15.00;68.40
17495;DHT22;8864;51.970;4.614;2023-02-28T07:07:56;15.00;68.30
17495;DHT22;8864;51.970;4.614;2023-02-28T07:10:30;15.00;68.30
17495;DHT22;8864;51.970;4.614;2023-02-28T07:12:57;15.00;68.20
17495;DHT22;8864;51.970;4.614;2023-02-28T07:15:30;15.00;68.20
17495;DHT22;8864;51.970;4.614;2023-02-28T07:18:02;15.00;68.20
17495;DHT22;8864;51.970;4.614;2023-02-28T07:20:35;15.00;68.10
17495;DHT22;8864;51.970;4.614;2023-02-28T07:23:11;15.00;68.10
17495;DHT22;8864;51.970;4.614;2023-02-28T07:25:47;15.00;68.10
17495;DHT22;8864;51.970;4.614;2023-02-28T07:28:22;15.00;68.10
17495;DHT22;8864;51.970;4.614;2023-02-28T07:30:52;15.00;68.10
17495;DHT22;8864;51.970;4.614;2023-02-28T07:33:22;14.90;68.00
17495;DHT22;8864;51.970;4.614;2023-02-28T07:36:00;15.00;68.10
17495;DHT22;8864;51.970;4.614;2023-02-28T07:38:37;15.00;68.10
17495;DHT22;8864;51.970;4.614;2023-02-28T07:41:07;15.00;68.00
17495;DHT22;8864;51.970;4.614;2023-02-28T07:43:40;15.00;68.10
17495;DHT22;8864;51.970;4.614;2023-02-28T07:46:10;15.00;68.00
17495;DHT22;8864;51.970;4.614;2023-02-28T07:48:38;15.00;68.00
17495;DHT22;8864;51.970;4.614;2023-02-28T07:51:08;14.90;68.00
17495;DHT22;8864;51.970;4.614;2023-02-28T07:53:45;14.90;68.10
17495;DHT22;8864;51.970;4.614;2023-02-28T07:56:14;14.90;68.40
17495;DHT22;8864;51.970;4.614;2023-02-28T07:58:43;15.00;68.50
17495;DHT22;8864;51.970;4.614;2023-02-28T08:01:14;14.90;68.60
17495;DHT22;8864;51.970;4.614;2023-02-28T08:03:41;14.90;68.40
17495;DHT22;8864;51.970;4.614;2023-02-28T08:06:16;14.90;68.30
17495;DHT22;8864;51.970;4.614;2023-02-28T08:08:43;15.00;68.30
17495;DHT22;8864;51.970;4.614;2023-02-28T08:11:12;14.90;68.20
17495;DHT22;8864;51.970;4.614;2023-02-28T08:13:40;15.00;68.10
17495;DHT22;8864;51.970;4.614;2023-02-28T08:16:12;15.00;68.20
17495;DHT22;8864;51.970;4.614;2023-02-28T08:18:44;15.00;68.30
17495;DHT22;8864;51.970;4.614;2023-02-28T08:21:11;15.00;69.10
17495;DHT22;8864;51.970;4.614;2023-02-28T08:23:38;15.00;69.80
17495;DHT22;8864;51.970;4.614;2023-02-28T08:26:07;15.00;70.00
17495;DHT22;8864;51.970;4.614;2023-02-28T08:28:45;15.00;69.60
17495;DHT22;8864;51.970;4.614;2023-02-28T08:31:14;15.00;69.60
17495;DHT22;8864;51.970;4.614;2023-02-28T08:33:42;15.00;69.90
17495;DHT22;8864;51.970;4.614;2023-02-28T08:36:11;15.00;69.70
17495;DHT22;8864;51.970;4.614;2023-02-28T08:38:39;15.00;69.70
17495;DHT22;8864;51.970;4.614;2023-02-28T08:41:09;15.00;70.30
17495;DHT22;8864;51.970;4.614;2023-02-28T08:43:40;15.00;70.30
17495;DHT22;8864;51.970;4.614;2023-02-28T08:46:11;15.00;71.10
17495;DHT22;8864;51.970;4.614;2023-02-28T08:48:41;15.00;70.90
17495;DHT22;8864;51.970;4.614;2023-02-28T08:51:16;15.00;70.70
17495;DHT22;8864;51.970;4.614;2023-02-28T08:54:07;15.00;70.70
17495;DHT22;8864;51.970;4.614;2023-02-28T08:56:36;15.00;70.60
17495;DHT22;8864;51.970;4.614;2023-02-28T08:59:19;15.00;72.20
17495;DHT22;8864;51.970;4.614;2023-02-28T09:01:49;15.00;71.10
17495;DHT22;8864;51.970;4.614;2023-02-28T09:04:19;15.00;72.60
17495;DHT22;8864;51.970;4.614;2023-02-28T09:06:48;15.10;73.10
17495;DHT22;8864;51.970;4.614;2023-02-28T09:09:15;15.10;72.90
17495;DHT22;8864;51.970;4.614;2023-02-28T09:11:44;15.10;73.20
17495;DHT22;8864;51.970;4.614;2023-02-28T09:14:12;15.10;73.80
17495;DHT22;8864;51.970;4.614;2023-02-28T09:16:39;15.10;73.30
17495;DHT22;8864;51.970;4.614;2023-02-28T09:19:15;15.10;73.90
17495;DHT22;8864;51.970;4.614;2023-02-28T09:21:47;15.10;74.10
17495;DHT22;8864;51.970;4.614;2023-02-28T09:24:19;15.10;74.80
17495;DHT22;8864;51.970;4.614;2023-02-28T09:26:47;15.20;76.50
17495;DHT22;8864;51.970;4.614;2023-02-28T09:29:16;15.20;76.60
17495;DHT22;8864;51.970;4.614;2023-02-28T09:31:44;15.10;75.50
17495;DHT22;8864;51.970;4.614;2023-02-28T09:34:19;15.20;75.00
17495;DHT22;8864;51.970;4.614;2023-02-28T09:36:47;15.20;74.60
17495;DHT22;8864;51.970;4.614;2023-02-28T09:39:16;15.20;74.30
17495;DHT22;8864;51.970;4.614;2023-02-28T09:41:47;15.20;74.00
17495;DHT22;8864;51.970;4.614;2023-02-28T09:44:22;15.20;73.60
17495;DHT22;8864;51.970;4.614;2023-02-28T09:46:55;15.20;73.50
17495;DHT22;8864;51.970;4.614;2023-02-28T09:49:38;15.20;73.30
17495;DHT22;8864;51.970;4.614;2023-02-28T09:52:10;15.20;73.00
17495;DHT22;8864;51.970;4.614;2023-02-28T09:54:39;15.20;72.90
17495;DHT22;8864;51.970;4.614;2023-02-28T09:57:08;15.20;72.70
17495;DHT22;8864;51.970;4.614;2023-02-28T09:59:45;15.20;72.60
17495;DHT22;8864;51.970;4.614;2023-02-28T10:02:35;15.20;72.50
17495;DHT22;8864;51.970;4.614;2023-02-28T10:05:07;15.20;72.70
17495;DHT22;8864;51.970;4.614;2023-02-28T10:08:00;15.20;72.60
17495;DHT22;8864;51.970;4.614;2023-02-28T10:10:52;15.20;72.40
17495;DHT22;8864;51.970;4.614;2023-02-28T10:13:25;15.20;72.30
17495;DHT22;8864;51.970;4.614;2023-02-28T10:15:59;15.20;72.20
17495;DHT22;8864;51.970;4.614;2023-02-28T10:18:36;15.30;72.10
17495;DHT22;8864;51.970;4.614;2023-02-28T10:21:10;15.20;72.00
17495;DHT22;8864;51.970;4.614;2023-02-28T10:24:03;15.20;71.90
17495;DHT22;8864;51.970;4.614;2023-02-28T10:26:33;15.20;71.80
17495;DHT22;8864;51.970;4.614;2023-02-28T10:29:03;15.20;71.80
17495;DHT22;8864;51.970;4.614;2023-02-28T10:31:31;15.30;72.10
17495;DHT22;8864;51.970;4.614;2023-02-28T10:33:58;15.30;72.10
17495;DHT22;8864;51.970;4.614;2023-02-28T10:36:27;15.30;71.80
17495;DHT22;8864;51.970;4.614;2023-02-28T10:38:54;15.30;71.80
17495;DHT22;8864;51.970;4.614;2023-02-28T10:41:33;15.30;71.60
17495;DHT22;8864;51.970;4.614;2023-02-28T10:44:21;15.40;71.50
17495;DHT22;8864;51.970;4.614;2023-02-28T10:46:49;15.40;71.30
17495;DHT22;8864;51.970;4.614;2023-02-28T10:49:20;15.40;71.20
17495;DHT22;8864;51.970;4.614;2023-02-28T10:51:57;15.40;71.00
17495;DHT22;8864;51.970;4.614;2023-02-28T10:54:28;15.40;70.80
17495;DHT22;8864;51.970;4.614;2023-02-28T10:57:09;15.50;70.70
17495;DHT22;8864;51.970;4.614;2023-02-28T10:59:41;15.50;70.70
17495;DHT22;8864;51.970;4.614;2023-02-28T11:02:34;15.50;70.70
17495;DHT22;8864;51.970;4.614;2023-02-28T11:05:23;15.50;70.60
17495;DHT22;8864;51.970;4.614;2023-02-28T11:07:56;15.50;71.40
17495;DHT22;8864;51.970;4.614;2023-02-28T11:10:33;15.50;70.70
17495;DHT22;8864;51.970;4.614;2023-02-28T11:13:05;15.50;70.70
17495;DHT22;8864;51.970;4.614;2023-02-28T11:15:33;15.50;72.60
17495;DHT22;8864;51.970;4.614;2023-02-28T11:18:17;15.50;72.60
17495;DHT22;8864;51.970;4.614;2023-02-28T11:20:54;15.50;72.10
17495;DHT22;8864;51.970;4.614;2023-02-28T11:23:30;15.50;71.90
17495;DHT22;8864;51.970;4.614;2023-02-28T11:26:02;15.50;71.70
17495;DHT22;8864;51.970;4.614;2023-02-28T11:28:47;15.50;71.60
17495;DHT22;8864;51.970;4.614;2023-02-28T11:31:17;15.50;72.30
17495;DHT22;8864;51.970;4.614;2023-02-28T11:33:56;15.60;71.90
17495;DHT22;8864;51.970;4.614;2023-02-28T11:36:28;15.60;71.60
17495;DHT22;8864;51.970;4.614;2023-02-28T11:39:12;15.60;71.30
17495;DHT22;8864;51.970;4.614;2023-02-28T11:41:53;15.60;71.00
17495;DHT22;8864;51.970;4.614;2023-02-28T11:44:32;15.60;70.90
17495;DHT22;8864;51.970;4.614;2023-02-28T11:47:12;15.60;70.60
17495;DHT22;8864;51.970;4.614;2023-02-28T11:49:52;15.60;70.40
17495;DHT22;8864;51.970;4.614;2023-02-28T11:52:35;15.60;70.30
17495;DHT22;8864;51.970;4.614;2023-02-28T11:55:20;15.70;70.10
17495;DHT22;8864;51.970;4.614;2023-02-28T11:58:06;15.70;69.90
17495;DHT22;8864;51.970;4.614;2023-02-28T12:01:13;15.70;69.70
17495;DHT22;8864;51.970;4.614;2023-02-28T12:03:45;15.70;69.70
17495;DHT22;8864;51.970;4.614;2023-02-28T12:06:22;15.70;69.60
17495;DHT22;8864;51.970;4.614;2023-02-28T12:09:09;15.60;69.50
17495;DHT22;8864;51.970;4.614;2023-02-28T12:11:51;15.60;69.30
17495;DHT22;8864;51.970;4.614;2023-02-28T12:17:26;15.70;69.30
17495;DHT22;8864;51.970;4.614;2023-02-28T12:20:03;15.60;69.40
17495;DHT22;8864;51.970;4.614;2023-02-28T12:22:45;15.60;69.40
17495;DHT22;8864;51.970;4.614;2023-02-28T12:28:25;15.60;69.50
17495;DHT22;8864;51.970;4.614;2023-02-28T12:30:58;15.60;69.50
17495;DHT22;8864;51.970;4.614;2023-02-28T12:33:33;15.60;69.50
17495;DHT22;8864;51.970;4.614;2023-02-28T12:36:09;15.60;69.60
17495;DHT22;8864;51.970;4.614;2023-02-28T12:38:47;15.60;69.50
17495;DHT22;8864;51.970;4.614;2023-02-28T12:41:19;15.70;69.60
17495;DHT22;8864;51.970;4.614;2023-02-28T12:43:53;15.60;69.60
17495;DHT22;8864;51.970;4.614;2023-02-28T12:46:25;15.60;69.60
17495;DHT22;8864;51.970;4.614;2023-02-28T12:49:00;15.70;69.60
17495;DHT22;8864;51.970;4.614;2023-02-28T12:51:35;15.60;69.60
17495;DHT22;8864;51.970;4.614;2023-02-28T12:54:11;15.60;70.60
17495;DHT22;8864;51.970;4.614;2023-02-28T12:56:47;15.60;70.50
17495;DHT22;8864;51.970;4.614;2023-02-28T12:59:35;15.60;70.50
17495;DHT22;8864;51.970;4.614;2023-02-28T13:02:39;15.70;70.30
17495;DHT22;8864;51.970;4.614;2023-02-28T13:05:32;15.70;70.10
17495;DHT22;8864;51.970;4.614;2023-02-28T13:08:30;15.70;70.00
17495;DHT22;8864;51.970;4.614;2023-02-28T13:11:02;15.70;70.00
17495;DHT22;8864;51.970;4.614;2023-02-28T13:13:31;15.70;69.80
17495;DHT22;8864;51.970;4.614;2023-02-28T13:16:02;15.70;69.80
17495;DHT22;8864;51.970;4.614;2023-02-28T13:18:35;15.70;69.80
17495;DHT22;8864;51.970;4.614;2023-02-28T13:21:07;15.70;70.50
17495;DHT22;8864;51.970;4.614;2023-02-28T13:23:56;15.70;69.70
17495;DHT22;8864;51.970;4.614;2023-02-28T13:29:57;15.70;69.60
17495;DHT22;8864;51.970;4.614;2023-02-28T13:32:33;15.60;69.60
17495;DHT22;8864;51.970;4.614;2023-02-28T13:38:23;15.70;69.50
17495;DHT22;8864;51.970;4.614;2023-02-28T13:40:53;15.70;69.50
17495;DHT22;8864;51.970;4.614;2023-02-28T13:46:38;15.70;69.30
17495;DHT22;8864;51.970;4.614;2023-02-28T13:49:25;15.70;69.30
17495;DHT22;8864;51.970;4.614;2023-02-28T13:52:11;15.70;69.20
17495;DHT22;8864;51.970;4.614;2023-02-28T13:54:59;15.70;69.20
17495;DHT22;8864;51.970;4.614;2023-02-28T13:57:40;15.70;69.20
17495;DHT22;8864;51.970;4.614;2023-02-28T14:00:41;15.70;69.20
17495;DHT22;8864;51.970;4.614;2023-02-28T14:03:25;15.70;69.10
17495;DHT22;8864;51.970;4.614;2023-02-28T14:06:21;15.70;69.00
17495;DHT22;8864;51.970;4.614;2023-02-28T14:08:54;15.80;69.00
17495;DHT22;8864;51.970;4.614;2023-02-28T14:11:36;15.70;69.00
17495;DHT22;8864;51.970;4.614;2023-02-28T14:14:05;15.80;69.10
17495;DHT22;8864;51.970;4.614;2023-02-28T14:16:39;15.70;68.90
17495;DHT22;8864;51.970;4.614;2023-02-28T14:19:12;15.80;68.90
17495;DHT22;8864;51.970;4.614;2023-02-28T14:21:51;15.80;68.80
17495;DHT22;8864;51.970;4.614;2023-02-28T14:24:34;15.80;68.70
17495;DHT22;8864;51.970;4.614;2023-02-28T14:27:28;15.80;68.70
17495;DHT22;8864;51.970;4.614;2023-02-28T14:33:18;15.80;68.60
17495;DHT22;8864;51.970;4.614;2023-02-28T14:36:10;15.80;68.60
17495;DHT22;8864;51.970;4.614;2023-02-28T14:38:43;15.80;68.60
17495;DHT22;8864;51.970;4.614;2023-02-28T14:41:16;15.80;68.50
17495;DHT22;8864;51.970;4.614;2023-02-28T14:43:51;15.80;68.50
17495;DHT22;8864;51.970;4.614;2023-02-28T14:46:20;15.80;68.30
17495;DHT22;8864;51.970;4.614;2023-02-28T14:48:52;15.80;68.10
17495;DHT22;8864;51.970;4.614;2023-02-28T14:51:22;15.90;68.10
17495;DHT22;8864;51.970;4.614;2023-02-28T14:53:57;15.90;68.00
17495;DHT22;8864;51.970;4.614;2023-02-28T14:56:36;15.90;67.80
17495;DHT22;8864;51.970;4.614;2023-02-28T14:59:18;16.00;67.80
17495;DHT22;8864;51.970;4.614;2023-02-28T15:02:15;16.00;67.60
17495;DHT22;8864;51.970;4.614;2023-02-28T15:04:42;16.00;67.30
17495;DHT22;8864;51.970;4.614;2023-02-28T15:07:13;16.00;67.30
17495;DHT22;8864;51.970;4.614;2023-02-28T15:09:44;16.00;67.20
17495;DHT22;8864;51.970;4.614;2023-02-28T15:12:15;16.00;67.00
17495;DHT22;8864;51.970;4.614;2023-02-28T15:14:48;16.10;67.00
17495;DHT22;8864;51.970;4.614;2023-02-28T15:17:22;16.10;67.00
17495;DHT22;8864;51.970;4.614;2023-02-28T15:19:55;16.10;66.90
17495;DHT22;8864;51.970;4.614;2023-02-28T15:22:35;16.10;66.70
17495;DHT22;8864;51.970;4.614;2023-02-28T15:25:14;16.10;66.60
17495;DHT22;8864;51.970;4.614;2023-02-28T15:27:46;16.20;67.30
17495;DHT22;8864;51.970;4.614;2023-02-28T15:30:18;16.20;66.30
17495;DHT22;8864;51.970;4.614;2023-02-28T15:33:05;16.20;66.30
17495;DHT22;8864;51.970;4.614;2023-02-28T15:35:37;16.20;66.20
17495;DHT22;8864;51.970;4.614;2023-02-28T15:38:21;16.20;66.10
17495;DHT22;8864;51.970;4.614;2023-02-28T15:40:56;16.20;66.00
17495;DHT22;8864;51.970;4.614;2023-02-28T15:43:28;16.20;66.70
17495;DHT22;8864;51.970;4.614;2023-02-28T15:45:59;16.20;65.90
17495;DHT22;8864;51.970;4.614;2023-02-28T15:48:28;16.20;65.80
17495;DHT22;8864;51.970;4.614;2023-02-28T15:50:57;16.20;65.70
17495;DHT22;8864;51.970;4.614;2023-02-28T15:53:32;16.30;65.60
17495;DHT22;8864;51.970;4.614;2023-02-28T15:56:07;16.30;65.40
17495;DHT22;8864;51.970;4.614;2023-02-28T15:58:42;16.30;65.40
17495;DHT22;8864;51.970;4.614;2023-02-28T16:01:26;16.30;65.30
17495;DHT22;8864;51.970;4.614;2023-02-28T16:04:00;16.30;65.20
17495;DHT22;8864;51.970;4.614;2023-02-28T16:06:38;16.30;65.10
17495;DHT22;8864;51.970;4.614;2023-02-28T16:09:09;16.30;65.00
17495;DHT22;8864;51.970;4.614;2023-02-28T16:11:45;16.40;65.10
17495;DHT22;8864;51.970;4.614;2023-02-28T16:14:15;16.40;65.00
17495;DHT22;8864;51.970;4.614;2023-02-28T16:16:46;16.40;64.90
17495;DHT22;8864;51.970;4.614;2023-02-28T16:19:17;16.40;64.90
17495;DHT22;8864;51.970;4.614;2023-02-28T16:21:49;16.30;64.80
17495;DHT22;8864;51.970;4.614;2023-02-28T16:24:19;16.30;64.80
17495;DHT22;8864;51.970;4.614;2023-02-28T16:26:50;16.30;64.70
17495;DHT22;8864;51.970;4.614;2023-02-28T16:29:23;16.30;64.80
17495;DHT22;8864;51.970;4.614;2023-02-28T16:31:58;16.30;64.70
17495;DHT22;8864;51.970;4.614;2023-02-28T16:34:28;16.30;64.70
17495;DHT22;8864;51.970;4.614;2023-02-28T16:36:55;16.30;64.80
17495;DHT22;8864;51.970;4.614;2023-02-28T16:39:22;16.30;64.80
17495;DHT22;8864;51.970;4.614;2023-02-28T16:41:53;16.30;64.90
17495;DHT22;8864;51.970;4.614;2023-02-28T16:44:27;16.30;65.10
17495;DHT22;8864;51.970;4.614;2023-02-28T16:46:55;16.30;65.10
17495;DHT22;8864;51.970;4.614;2023-02-28T16:49:30;16.20;65.10
17495;DHT22;8864;51.970;4.614;2023-02-28T16:51:59;16.20;65.10
17495;DHT22;8864;51.970;4.614;2023-02-28T16:54:26;16.20;65.20
17495;DHT22;8864;51.970;4.614;2023-02-28T16:56:54;16.20;65.30